createdAt,value
2022-12-05T00:01:49.094Z,100527.89
2022-12-05T00:04:19.067Z,100527.89
2022-12-05T00:06:48.865Z,100525.38
2022-12-05T00:09:18.511Z,100517.55
2022-12-05T00:11:48.309Z,100519.36
2022-12-05T00:14:18.187Z,100516.95
2022-12-05T00:16:48.144Z,100515.69
2022-12-05T00:19:17.811Z,100516.33
2022-12-05T00:21:47.611Z,100511.93
2022-12-05T00:24:19.607Z,100508.70
2022-12-05T00:26:51.487Z,100508.04
2022-12-05T00:29:23.921Z,100516.40
2022-12-05T00:31:52.976Z,100517.30
2022-12-05T00:34:22.829Z,100507.72
2022-12-05T00:36:52.694Z,100509.56
2022-12-05T00:39:22.534Z,100512.09
2022-12-05T00:41:52.693Z,100520.66
2022-12-05T00:44:22.580Z,100523.43
2022-12-05T00:46:52.373Z,100519.50
2022-12-05T00:49:25.206Z,100522.66
2022-12-05T00:51:55.147Z,100518.53
2022-12-05T00:54:24.960Z,100520.31
2022-12-05T00:56:56.213Z,100516.11
2022-12-05T00:59:25.930Z,100514.14
2022-12-05T01:01:55.786Z,100511.84
2022-12-05T01:04:26.857Z,100513.12
2022-12-05T01:06:58.819Z,100516.16
2022-12-05T01:09:28.900Z,100516.16
2022-12-05T01:11:58.683Z,100517.50
2022-12-05T01:14:28.754Z,100517.50
2022-12-05T01:16:58.659Z,100516.59
2022-12-05T01:19:31.549Z,100510.12
2022-12-05T01:22:01.819Z,100511.08
2022-12-05T01:24:32.893Z,100508.03
2022-12-05T01:27:02.678Z,100515.57
2022-12-05T01:29:32.707Z,100508.19
2022-12-05T01:32:04.132Z,100510.12
2022-12-05T01:34:34.007Z,100503.95
2022-12-05T01:37:03.820Z,100503.99
2022-12-05T01:39:33.673Z,100503.99
2022-12-05T01:42:05.450Z,100501.08
2022-12-05T01:44:38.337Z,100497.65
2022-12-05T01:47:09.803Z,100491.02
2022-12-05T01:49:42.350Z,100482.47
2022-12-05T01:52:17.932Z,100482.47
2022-12-05T01:54:51.017Z,100495.38
2022-12-05T01:57:20.960Z,100500.88
2022-12-05T01:59:53.694Z,100496.33
2022-12-05T02:02:23.680Z,100501.67
2022-12-05T02:05:02.534Z,100492.31
2022-12-05T02:07:33.749Z,100489.02
2022-12-05T02:10:03.564Z,100491.60
2022-12-05T02:12:33.943Z,100491.60
2022-12-05T02:15:21.808Z,100496.51
2022-12-05T02:18:16.096Z,100502.39
2022-12-05T02:20:54.728Z,100502.70
2022-12-05T02:23:39.335Z,100502.41
2022-12-05T02:26:34.479Z,100497.41
2022-12-05T02:29:22.349Z,100497.41
2022-12-05T02:32:07.476Z,100489.47
2022-12-05T02:34:40.335Z,100492.08
2022-12-05T02:37:15.676Z,100490.94
2022-12-05T02:40:10.883Z,100483.50
2022-12-05T02:42:52.359Z,100490.89
2022-12-05T02:45:23.008Z,100487.92
2022-12-05T02:47:54.937Z,100490.38
2022-12-05T02:50:33.744Z,100494.91
2022-12-05T02:53:06.622Z,100487.95
2022-12-05T02:55:37.747Z,100480.52
2022-12-05T02:58:10.619Z,100489.53
2022-12-05T03:00:42.878Z,100499.06
2022-12-05T03:03:16.471Z,100487.58
2022-12-05T03:05:58.147Z,100491.79
2022-12-05T03:08:33.786Z,100493.49
2022-12-05T03:11:04.878Z,100486.62
2022-12-05T03:13:40.577Z,100482.09
2022-12-05T03:16:13.169Z,100483.61
2022-12-05T03:18:46.048Z,100480.66
2022-12-05T03:21:33.487Z,100480.60
2022-12-05T03:24:06.623Z,100478.10
2022-12-05T03:26:39.467Z,100476.63
2022-12-05T03:29:16.723Z,100470.86
2022-12-05T03:31:56.493Z,100470.86
2022-12-05T03:34:38.208Z,100465.28
2022-12-05T03:37:11.518Z,100468.23
2022-12-05T03:39:44.376Z,100464.83
2022-12-05T03:42:16.597Z,100468.50
2022-12-05T03:45:01.604Z,100463.86
2022-12-05T03:47:40.028Z,100466.80
2022-12-05T03:50:12.662Z,100471.75
2022-12-05T03:53:18.643Z,100470.10
2022-12-05T03:55:28.767Z,100462.52
2022-12-05T03:58:05.042Z,100462.52
2022-12-05T04:00:37.890Z,100466.23
2022-12-05T04:03:17.842Z,100453.26
2022-12-05T04:06:00.060Z,100464.72
2022-12-05T04:08:39.222Z,100451.99
2022-12-05T04:11:17.748Z,100459.42
2022-12-05T04:13:53.341Z,100469.20
2022-12-05T04:16:43.600Z,100456.76
2022-12-05T04:19:57.105Z,100464.32
2022-12-05T04:22:27.793Z,100473.58
2022-12-05T04:25:18.353Z,100463.23
2022-12-05T04:28:22.213Z,100461.98
2022-12-05T04:31:06.941Z,100467.25
2022-12-05T04:33:45.955Z,100456.81
2022-12-05T04:36:18.795Z,100453.30
2022-12-05T04:38:51.706Z,100454.91
2022-12-05T04:41:24.334Z,100459.72
2022-12-05T04:43:57.569Z,100464.20
2022-12-05T04:46:27.497Z,100462.28
2022-12-05T04:49:00.697Z,100464.73
2022-12-05T04:51:34.492Z,100474.89
2022-12-05T04:54:07.327Z,100479.08
2022-12-05T04:56:39.340Z,100483.17
2022-12-05T04:59:08.959Z,100485.94
2022-12-05T05:01:44.871Z,100474.87
2022-12-05T05:04:18.022Z,100469.47
2022-12-05T05:06:48.284Z,100480.22
2022-12-05T05:09:18.120Z,100476.39
2022-12-05T05:11:48.308Z,100471.41
2022-12-05T05:14:17.852Z,100475.45
2022-12-05T05:16:48.509Z,100466.02
2022-12-05T05:19:18.234Z,100465.19
2022-12-05T05:21:48.781Z,100463.63
2022-12-05T05:24:19.237Z,100468.36
2022-12-05T05:26:55.519Z,100465.61
2022-12-05T05:29:20.874Z,100475.51
2022-12-05T05:31:50.682Z,100469.31
2022-12-05T05:34:20.510Z,100478.44
2022-12-05T05:36:54.584Z,100482.26
2022-12-05T05:39:24.096Z,100482.52
2022-12-05T05:41:53.883Z,100482.78
2022-12-05T05:44:23.503Z,100483.58
2022-12-05T05:46:53.417Z,100485.08
2022-12-05T05:49:23.030Z,100484.77
2022-12-05T05:51:52.878Z,100483.91
2022-12-05T05:54:22.566Z,100486.30
2022-12-05T05:56:52.385Z,100486.97
2022-12-05T05:59:22.164Z,100483.34
2022-12-05T06:01:52.060Z,100487.82
2022-12-05T06:04:21.751Z,100487.82
2022-12-05T06:06:51.673Z,100489.41
2022-12-05T06:09:21.214Z,100499.62
2022-12-05T06:11:51.045Z,100495.65
2022-12-05T06:14:20.519Z,100493.22
2022-12-05T06:16:50.379Z,100482.94
2022-12-05T06:19:20.226Z,100488.80
2022-12-05T06:21:52.877Z,100488.96
2022-12-05T06:24:22.666Z,100488.96
2022-12-05T06:26:52.602Z,100483.97
2022-12-05T06:29:25.686Z,100480.61
2022-12-05T06:31:52.971Z,100470.45
2022-12-05T06:34:22.521Z,100479.94
2022-12-05T06:36:52.329Z,100479.91
2022-12-05T06:39:22.138Z,100478.86
2022-12-05T06:41:52.028Z,100477.94
2022-12-05T06:44:21.969Z,100474.82
2022-12-05T06:46:51.860Z,100470.16
2022-12-05T06:49:26.325Z,100471.46
2022-12-05T06:51:56.803Z,100472.55
2022-12-05T06:54:26.857Z,100470.13
2022-12-05T06:56:57.050Z,100469.81
2022-12-05T06:59:26.795Z,100467.49
2022-12-05T07:01:56.713Z,100458.66
2022-12-05T07:04:26.639Z,100459.09
2022-12-05T07:06:57.295Z,100462.00
2022-12-05T07:09:29.184Z,100465.19
2022-12-05T07:11:59.073Z,100467.17
2022-12-05T07:14:47.061Z,100460.97
2022-12-05T07:17:00.585Z,100464.19
2022-12-05T07:19:30.540Z,100468.30
2022-12-05T07:22:00.527Z,100468.30
2022-12-05T07:24:30.602Z,100474.14
2022-12-05T07:27:00.428Z,100470.61
2022-12-05T07:29:39.459Z,100474.98
2022-12-05T07:32:09.791Z,100475.05
2022-12-05T07:34:39.464Z,100478.69
2022-12-05T07:37:09.334Z,100478.55
2022-12-05T07:39:39.299Z,100479.55
2022-12-05T07:42:09.102Z,100480.77
2022-12-05T07:44:38.894Z,100485.66
2022-12-05T07:47:08.488Z,100498.90
2022-12-05T07:49:39.849Z,100499.41
2022-12-05T07:52:10.039Z,100500.53
2022-12-05T07:54:39.767Z,100503.78
2022-12-05T07:57:09.680Z,100502.41
2022-12-05T07:59:39.471Z,100496.05
2022-12-05T08:02:11.303Z,100492.94
2022-12-05T08:04:41.150Z,100501.28
2022-12-05T08:07:12.195Z,100503.51
2022-12-05T08:09:42.154Z,100504.74
2022-12-05T08:12:11.985Z,100502.86
2022-12-05T08:14:41.834Z,100505.48
2022-12-05T08:17:11.715Z,100509.67
2022-12-05T08:19:41.558Z,100504.47
2022-12-05T08:22:11.216Z,100508.20
2022-12-05T08:24:40.990Z,100508.60
2022-12-05T08:27:10.885Z,100502.75
2022-12-05T08:29:40.644Z,100500.30
2022-12-05T08:32:10.463Z,100492.17
2022-12-05T08:34:40.249Z,100501.55
2022-12-05T08:37:10.067Z,100501.55
2022-12-05T08:39:40.100Z,100505.14
2022-12-05T08:42:09.890Z,100505.80
2022-12-05T08:44:40.005Z,100504.50
2022-12-05T08:47:09.671Z,100510.06
2022-12-05T08:49:39.568Z,100508.08
2022-12-05T08:52:09.091Z,100510.55
2022-12-05T08:54:38.973Z,100510.88
2022-12-05T08:57:08.827Z,100507.31
2022-12-05T08:59:38.535Z,100512.14
2022-12-05T09:02:11.172Z,100501.66
2022-12-05T09:04:41.126Z,100502.68
2022-12-05T09:07:10.689Z,100502.13
2022-12-05T09:09:40.602Z,100493.65
2022-12-05T09:12:10.422Z,100490.52
2022-12-05T09:14:40.233Z,100484.79
2022-12-05T09:17:10.021Z,100484.79
2022-12-05T09:19:39.977Z,100492.02
2022-12-05T09:22:09.492Z,100490.71
2022-12-05T09:24:39.640Z,100496.73
2022-12-05T09:27:09.136Z,100494.78
2022-12-05T09:29:39.315Z,100496.16
2022-12-05T09:32:10.845Z,100499.17
2022-12-05T09:34:40.801Z,100501.73
2022-12-05T09:37:38.105Z,100500.94
2022-12-05T09:39:49.679Z,100499.78
2022-12-05T09:42:25.122Z,100494.78
2022-12-05T09:45:04.066Z,100490.47
2022-12-05T09:47:39.716Z,100490.25
2022-12-05T09:50:15.606Z,100487.14
2022-12-05T09:52:48.426Z,100483.04
2022-12-05T09:55:21.794Z,100482.37
2022-12-05T09:57:57.327Z,100480.98
2022-12-05T10:00:30.297Z,100482.98
2022-12-05T10:03:18.123Z,100477.65
2022-12-05T10:05:55.026Z,100480.27
2022-12-05T10:08:43.762Z,100478.95
2022-12-05T10:11:22.231Z,100474.05
2022-12-05T10:14:28.148Z,100463.21
2022-12-05T10:17:01.230Z,100463.94
2022-12-05T10:19:37.040Z,100465.56
2022-12-05T10:22:09.736Z,100466.47
2022-12-05T10:24:42.569Z,100466.41
2022-12-05T10:27:18.124Z,100463.92
2022-12-05T10:30:06.302Z,100466.31
2022-12-05T10:32:58.549Z,100459.62
2022-12-05T10:35:40.381Z,100465.38
2022-12-05T10:38:16.151Z,100462.88
2022-12-05T10:40:49.000Z,100466.34
2022-12-05T10:43:29.707Z,100457.65
2022-12-05T10:46:01.828Z,100463.92
2022-12-05T10:48:33.385Z,100458.05
2022-12-05T10:51:03.476Z,100466.25
2022-12-05T10:53:40.330Z,100468.92
2022-12-05T10:56:46.365Z,100463.45
2022-12-05T10:59:19.244Z,100460.02
2022-12-05T11:01:53.577Z,100466.55
2022-12-05T11:04:29.963Z,100465.49
2022-12-05T11:07:05.585Z,100462.63
2022-12-05T11:09:38.961Z,100472.31
2022-12-05T11:12:11.719Z,100471.84
2022-12-05T11:14:41.989Z,100466.16
2022-12-05T11:17:15.733Z,100468.83
2022-12-05T11:19:46.746Z,100470.30
2022-12-05T11:22:19.329Z,100467.67
2022-12-05T11:24:50.015Z,100464.45
2022-12-05T11:27:22.907Z,100460.28
2022-12-05T11:29:58.895Z,100454.31
2022-12-05T11:32:31.769Z,100453.40
2022-12-05T11:35:16.696Z,100456.49
2022-12-05T11:38:04.846Z,100442.14
2022-12-05T11:40:40.700Z,100443.13
2022-12-05T11:43:32.970Z,100441.97
2022-12-05T11:46:05.861Z,100437.52
2022-12-05T11:48:43.708Z,100436.45
2022-12-05T11:51:37.650Z,100443.53
2022-12-05T11:55:02.823Z,100443.53
2022-12-05T11:57:21.270Z,100443.28
2022-12-05T11:59:54.399Z,100442.94
2022-12-05T12:02:45.718Z,100433.05
2022-12-05T12:05:33.499Z,100427.42
2022-12-05T12:08:07.137Z,100425.02
2022-12-05T12:10:54.956Z,100423.06
2022-12-05T12:13:42.963Z,100427.98
2022-12-05T12:16:45.295Z,100428.36
2022-12-05T12:19:23.854Z,100419.66
2022-12-05T12:22:06.639Z,100420.50
2022-12-05T12:24:51.614Z,100411.04
2022-12-05T12:27:46.163Z,100415.34
2022-12-05T12:30:27.883Z,100414.62
2022-12-05T12:32:58.168Z,100416.42
2022-12-05T12:35:33.344Z,100418.09
2022-12-05T12:38:15.167Z,100419.85
2022-12-05T12:40:58.289Z,100414.76
2022-12-05T12:43:53.257Z,100419.59
2022-12-05T12:46:19.275Z,100416.75
2022-12-05T12:48:58.007Z,100414.69
2022-12-05T12:51:30.825Z,100411.55
2022-12-05T12:54:40.394Z,100412.52
2022-12-05T12:57:13.935Z,100423.13
2022-12-05T12:59:58.802Z,100426.27
2022-12-05T13:02:51.500Z,100423.72
2022-12-05T13:05:42.292Z,100427.25
2022-12-05T13:08:23.726Z,100419.83
2022-12-05T13:10:54.546Z,100419.83
2022-12-05T13:13:32.984Z,100424.67
2022-12-05T13:16:07.837Z,100428.83
2022-12-05T13:18:37.826Z,100428.83
2022-12-05T13:21:09.943Z,100426.09
2022-12-05T13:23:46.214Z,100425.41
2022-12-05T13:26:17.005Z,100428.42
2022-12-05T13:28:55.779Z,100432.75
2022-12-05T13:31:45.777Z,100429.92
2022-12-05T13:34:33.468Z,100428.55
2022-12-05T13:37:30.703Z,100434.70
2022-12-05T13:40:18.404Z,100432.63
2022-12-05T13:42:49.017Z,100434.06
2022-12-05T13:45:21.259Z,100435.66
2022-12-05T13:47:57.065Z,100434.03
2022-12-05T13:50:38.172Z,100434.13
2022-12-05T13:53:27.566Z,100438.52
2022-12-05T13:56:00.775Z,100438.91
2022-12-05T13:58:36.527Z,100432.23
2022-12-05T14:01:37.015Z,100422.46
2022-12-05T14:04:10.070Z,100432.64
2022-12-05T14:06:45.452Z,100427.71
2022-12-05T14:09:29.773Z,100434.78
2022-12-05T14:12:14.782Z,100436.68
2022-12-05T14:15:04.026Z,100431.91
2022-12-05T14:17:45.167Z,100431.91
2022-12-05T14:20:26.606Z,100426.20
2022-12-05T14:23:06.087Z,100418.74
2022-12-05T14:26:14.002Z,100414.75
2022-12-05T14:29:03.642Z,100414.41
2022-12-05T14:31:52.959Z,100415.53
2022-12-05T14:34:28.456Z,100407.20
2022-12-05T14:37:17.978Z,100411.80
2022-12-05T14:39:52.190Z,100418.99
2022-12-05T14:42:39.976Z,100417.61
2022-12-05T14:45:32.862Z,100420.64
2022-12-05T14:48:18.586Z,100419.70
2022-12-05T14:50:51.702Z,100413.16
2022-12-05T14:53:33.205Z,100424.42
2022-12-05T14:56:13.662Z,100424.83
2022-12-05T14:59:02.171Z,100436.41
2022-12-05T15:01:51.964Z,100439.09
2022-12-05T15:04:45.933Z,100439.09
2022-12-05T15:07:22.828Z,100434.13
2022-12-05T15:10:13.136Z,100442.05
2022-12-05T15:12:57.503Z,100435.89
2022-12-05T15:15:45.959Z,100430.43
2022-12-05T15:18:25.360Z,100439.56
2022-12-05T15:21:00.928Z,100429.09
2022-12-05T15:23:50.033Z,100435.30
2022-12-05T15:26:48.428Z,100423.00
2022-12-05T15:29:15.175Z,100421.36
2022-12-05T15:31:59.886Z,100429.49
2022-12-05T15:34:32.809Z,100431.59
2022-12-05T15:37:11.433Z,100437.00
2022-12-05T15:40:09.995Z,100435.17
2022-12-05T15:42:42.971Z,100432.55
2022-12-05T15:45:19.918Z,100428.23
2022-12-05T15:47:52.417Z,100425.69
2022-12-05T15:50:44.843Z,100430.46
2022-12-05T15:53:33.798Z,100431.44
2022-12-05T15:56:09.468Z,100436.55
2022-12-05T15:58:57.351Z,100429.61
2022-12-05T16:01:29.015Z,100435.04
2022-12-05T16:04:09.296Z,100438.25
2022-12-05T16:06:49.564Z,100435.08
2022-12-05T16:09:24.576Z,100440.77
2022-12-05T16:11:58.346Z,100438.67
2022-12-05T16:14:58.843Z,100435.89
2022-12-05T16:17:11.355Z,100434.29
2022-12-05T16:19:41.224Z,100437.11
2022-12-05T16:22:16.750Z,100435.14
2022-12-05T16:25:04.689Z,100434.30
2022-12-05T16:27:39.296Z,100438.13
2022-12-05T16:30:15.011Z,100443.23
2022-12-05T16:32:46.472Z,100450.63
2022-12-05T16:35:37.488Z,100453.14
2022-12-05T16:38:19.952Z,100452.62
2022-12-05T16:40:55.886Z,100455.20
2022-12-05T16:43:34.507Z,100452.61
2022-12-05T16:46:17.237Z,100449.51
2022-12-05T16:48:49.857Z,100449.46
2022-12-05T16:51:22.000Z,100458.44
2022-12-05T16:53:55.979Z,100452.72
2022-12-05T16:56:33.890Z,100454.16
2022-12-05T16:59:06.100Z,100447.67
2022-12-05T17:01:39.195Z,100447.41
2022-12-05T17:04:16.106Z,100447.94
2022-12-05T17:06:45.975Z,100451.83
2022-12-05T17:09:16.262Z,100452.78
2022-12-05T17:11:48.952Z,100450.39
2022-12-05T17:14:21.309Z,100449.15
2022-12-05T17:16:51.179Z,100453.08
2022-12-05T17:19:20.957Z,100452.61
2022-12-05T17:21:50.975Z,100454.05
2022-12-05T17:24:20.888Z,100454.25
2022-12-05T17:26:50.686Z,100460.77
2022-12-05T17:29:20.487Z,100458.02
2022-12-05T17:31:50.426Z,100453.70
2022-12-05T17:34:20.360Z,100450.69
2022-12-05T17:36:51.442Z,100453.56
2022-12-05T17:39:26.488Z,100456.12
2022-12-05T17:41:58.042Z,100460.31
2022-12-05T17:44:28.007Z,100461.39
2022-12-05T17:47:00.718Z,100461.39
2022-12-05T17:49:29.364Z,100460.54
2022-12-05T17:54:32.897Z,100460.60
2022-12-05T17:57:03.716Z,100457.30
2022-12-05T17:59:33.107Z,100445.88
2022-12-05T18:02:05.664Z,100452.55
2022-12-05T18:04:35.404Z,100450.59
2022-12-05T18:07:05.272Z,100425.00
2022-12-05T18:09:35.180Z,100453.73
2022-12-05T18:12:05.198Z,100454.13
2022-12-05T18:14:36.336Z,100447.58
2022-12-05T18:17:08.449Z,100453.66
2022-12-05T18:19:39.393Z,100449.02
2022-12-05T18:22:10.161Z,100453.86
2022-12-05T18:24:40.018Z,100444.56
2022-12-05T18:27:12.000Z,100446.37
2022-12-05T18:29:41.860Z,100448.88
2022-12-05T18:32:12.277Z,100452.03
2022-12-05T18:34:41.889Z,100462.50
2022-12-05T18:37:11.602Z,100458.51
2022-12-05T18:39:41.440Z,100455.43
2022-12-05T18:42:14.949Z,100455.43
2022-12-05T18:44:42.632Z,100453.20
2022-12-05T18:47:12.409Z,100459.75
2022-12-05T18:49:42.761Z,100456.74
2022-12-05T18:52:12.819Z,100456.22
2022-12-05T18:55:03.029Z,100449.73
2022-12-05T18:57:20.693Z,100444.56
2022-12-05T18:59:51.995Z,100444.96
2022-12-05T19:02:21.808Z,100444.89
2022-12-05T19:04:53.576Z,100441.42
2022-12-05T19:07:24.129Z,100444.70
2022-12-05T19:09:54.189Z,100447.97
2022-12-05T19:12:24.058Z,100446.98
2022-12-05T19:14:54.961Z,100447.58
2022-12-05T19:17:25.032Z,100451.04
2022-12-05T19:19:58.670Z,100454.97
2022-12-05T19:22:30.308Z,100449.27
2022-12-05T19:25:03.785Z,100448.42
2022-12-05T19:27:37.068Z,100452.74
2022-12-05T19:30:10.097Z,100452.74
2022-12-05T19:32:40.917Z,100458.56
2022-12-05T19:35:10.809Z,100457.13
2022-12-05T19:37:42.785Z,100456.09
2022-12-05T19:40:12.983Z,100451.30
2022-12-05T19:42:43.498Z,100449.80
2022-12-05T19:45:17.783Z,100447.97
2022-12-05T19:47:44.861Z,100444.05
2022-12-05T19:50:14.974Z,100447.64
2022-12-05T19:52:46.668Z,100448.98
2022-12-05T19:55:16.626Z,100448.56
2022-12-05T19:57:47.384Z,100442.54
2022-12-05T20:00:19.115Z,100445.55
2022-12-05T20:02:50.465Z,100439.06
2022-12-05T20:05:20.429Z,100440.25
2022-12-05T20:07:50.334Z,100442.80
2022-12-05T20:10:20.466Z,100443.38
2022-12-05T20:12:50.182Z,100441.95
2022-12-05T20:15:20.057Z,100435.66
2022-12-05T20:17:53.155Z,100435.66
2022-12-05T20:20:21.386Z,100438.02
2022-12-05T20:22:51.308Z,100438.80
2022-12-05T20:25:21.645Z,100441.03
2022-12-05T20:27:53.493Z,100438.55
2022-12-05T20:30:23.022Z,100434.42
2022-12-05T20:32:52.901Z,100433.90
2022-12-05T20:35:24.358Z,100437.83
2022-12-05T20:37:55.177Z,100437.04
2022-12-05T20:40:25.614Z,100432.66
2022-12-05T20:42:57.286Z,100437.43
2022-12-05T20:45:27.100Z,100436.97
2022-12-05T20:47:57.000Z,100435.44
2022-12-05T20:50:26.804Z,100437.66
2022-12-05T20:52:56.963Z,100441.36
2022-12-05T20:55:26.773Z,100439.66
2022-12-05T20:58:00.152Z,100443.13
2022-12-05T21:00:29.097Z,100442.80
2022-12-05T21:02:59.882Z,100441.69
2022-12-05T21:05:31.902Z,100432.06
2022-12-05T21:08:01.908Z,100436.65
2022-12-05T21:10:31.909Z,100437.10
2022-12-05T21:13:03.626Z,100438.15
2022-12-05T21:15:33.524Z,100429.14
2022-12-05T21:18:04.192Z,100423.65
2022-12-05T21:20:38.909Z,100426.53
2022-12-05T21:23:08.023Z,100419.89
2022-12-05T21:25:38.740Z,100415.80
2022-12-05T21:28:10.477Z,100418.02
2022-12-05T21:30:44.383Z,100421.16
2022-12-05T21:33:14.387Z,100420.97
2022-12-05T21:35:56.727Z,100417.95
2022-12-05T21:38:26.643Z,100414.49
2022-12-05T21:40:56.494Z,100412.33
2022-12-05T21:43:26.428Z,100411.48
2022-12-05T21:45:56.918Z,100415.80
2022-12-05T21:48:29.814Z,100419.84
2022-12-05T21:51:00.972Z,100416.78
2022-12-05T21:53:36.798Z,100418.80
2022-12-05T21:56:11.439Z,100416.91
2022-12-05T21:58:42.754Z,100412.86
2022-12-05T22:01:27.700Z,100416.00
2022-12-05T22:03:59.784Z,100414.82
2022-12-05T22:06:33.234Z,100414.20
2022-12-05T22:09:04.365Z,100403.11
2022-12-05T22:11:35.364Z,100400.27
2022-12-05T22:14:05.194Z,100392.38
2022-12-05T22:16:35.411Z,100392.38
2022-12-05T22:19:07.416Z,100394.99
2022-12-05T22:21:37.409Z,100395.32
2022-12-05T22:24:09.279Z,100393.89
2022-12-05T22:26:39.478Z,100393.36
2022-12-05T22:29:09.058Z,100386.68
2022-12-05T22:31:38.979Z,100387.80
2022-12-05T22:34:09.708Z,100384.72
2022-12-05T22:36:39.639Z,100381.45
2022-12-05T22:39:10.935Z,100394.86
2022-12-05T22:41:40.524Z,100388.65
2022-12-05T22:44:10.101Z,100382.59
2022-12-05T22:46:40.250Z,100385.96
2022-12-05T22:49:11.685Z,100381.12
2022-12-05T22:51:41.762Z,100380.89
2022-12-05T22:54:11.279Z,100377.52
2022-12-05T22:56:41.125Z,100377.79
2022-12-05T22:59:14.956Z,100371.64
2022-12-05T23:01:45.129Z,100364.70
2022-12-05T23:04:14.845Z,100370.27
2022-12-05T23:06:44.741Z,100360.78
2022-12-05T23:09:14.591Z,100366.93
2022-12-05T23:11:44.416Z,100356.66
2022-12-05T23:14:14.220Z,100360.06
2022-12-05T23:16:44.141Z,100348.22
2022-12-05T23:19:13.738Z,100351.03
2022-12-05T23:21:43.622Z,100340.63
2022-12-05T23:24:14.274Z,100330.50
2022-12-05T23:26:46.280Z,100330.50
2022-12-05T23:29:16.552Z,100328.86
2022-12-05T23:31:46.739Z,100326.23
2022-12-05T23:34:16.500Z,100316.23
2022-12-05T23:36:46.330Z,100315.38
2022-12-05T23:39:16.421Z,100315.38
2022-12-05T23:41:46.736Z,100314.08
2022-12-05T23:44:16.376Z,100318.91
2022-12-05T23:46:46.418Z,100311.06
2022-12-05T23:49:15.973Z,100311.06
2022-12-05T23:51:45.810Z,100311.00
2022-12-05T23:54:17.051Z,100307.59
2022-12-05T23:56:47.359Z,100304.06
2022-12-05T23:59:17.157Z,100296.54
